sensor_id;sensor_type;location;lat;lon;timestamp;P1;durP1;ratioP1;P2;durP2;ratioP2
47367;SDS011;34646;47.964;7.982;2023-04-25T00:00:57;4.80;;;1.17;;
47367;SDS011;34646;47.964;7.982;2023-04-25T00:06:57;4.77;;;1.30;;
47367;SDS011;34646;47.964;7.982;2023-04-25T00:13:01;5.68;;;1.27;;
47367;SDS011;34646;47.964;7.982;2023-04-25T00:19:02;5.50;;;1.47;;
47367;SDS011;34646;47.964;7.982;2023-04-25T00:25:04;5.00;;;1.27;;
47367;SDS011;34646;47.964;7.982;2023-04-25T00:31:06;3.58;;;1.10;;
47367;SDS011;34646;47.964;7.982;2023-04-25T00:37:07;4.13;;;1.37;;
47367;SDS011;34646;47.964;7.982;2023-04-25T00:43:07;4.43;;;1.10;;
47367;SDS011;34646;47.964;7.982;2023-04-25T00:49:08;3.07;;;0.93;;
47367;SDS011;34646;47.964;7.982;2023-04-25T00:55:13;2.45;;;1.17;;
47367;SDS011;34646;47.964;7.982;2023-04-25T01:01:15;3.30;;;1.00;;
47367;SDS011;34646;47.964;7.982;2023-04-25T01:07:16;3.20;;;1.07;;
47367;SDS011;34646;47.964;7.982;2023-04-25T01:13:17;2.57;;;1.00;;
47367;SDS011;34646;47.964;7.982;2023-04-25T01:19:18;2.80;;;1.00;;
47367;SDS011;34646;47.964;7.982;2023-04-25T01:25:21;2.30;;;0.80;;
47367;SDS011;34646;47.964;7.982;2023-04-25T01:31:22;2.45;;;1.10;;
47367;SDS011;34646;47.964;7.982;2023-04-25T01:37:23;2.92;;;1.30;;
47367;SDS011;34646;47.964;7.982;2023-04-25T01:43:25;3.00;;;1.30;;
47367;SDS011;34646;47.964;7.982;2023-04-25T01:55:27;2.53;;;0.98;;
47367;SDS011;34646;47.964;7.982;2023-04-25T02:01:41;3.90;;;1.13;;
47367;SDS011;34646;47.964;7.982;2023-04-25T02:07:57;1.58;;;0.85;;
47367;SDS011;34646;47.964;7.982;2023-04-25T02:13:59;1.50;;;0.75;;
47367;SDS011;34646;47.964;7.982;2023-04-25T02:20:21;2.58;;;1.00;;
47367;SDS011;34646;47.964;7.982;2023-04-25T02:26:23;3.97;;;1.08;;
47367;SDS011;34646;47.964;7.982;2023-04-25T02:32:25;2.63;;;1.30;;
47367;SDS011;34646;47.964;7.982;2023-04-25T02:44:27;2.78;;;1.17;;
47367;SDS011;34646;47.964;7.982;2023-04-25T02:50:28;1.70;;;0.90;;
47367;SDS011;34646;47.964;7.982;2023-04-25T02:56:29;5.37;;;1.07;;
47367;SDS011;34646;47.964;7.982;2023-04-25T03:02:30;1.92;;;0.88;;
47367;SDS011;34646;47.964;7.982;2023-04-25T03:08:31;2.37;;;0.70;;
47367;SDS011;34646;47.964;7.982;2023-04-25T03:14:35;3.45;;;1.00;;
47367;SDS011;34646;47.964;7.982;2023-04-25T03:20:36;3.30;;;0.80;;
47367;SDS011;34646;47.964;7.982;2023-04-25T03:32:39;1.73;;;0.90;;
47367;SDS011;34646;47.964;7.982;2023-04-25T03:44:42;1.35;;;0.80;;
47367;SDS011;34646;47.964;7.982;2023-04-25T03:50:43;1.40;;;0.67;;
47367;SDS011;34646;47.964;7.982;2023-04-25T03:56:44;2.07;;;1.17;;
47367;SDS011;34646;47.964;7.982;2023-04-25T04:02:52;1.27;;;0.70;;
47367;SDS011;34646;47.964;7.982;2023-04-25T04:08:53;2.30;;;0.97;;
47367;SDS011;34646;47.964;7.982;2023-04-25T04:14:55;1.40;;;0.85;;
47367;SDS011;34646;47.964;7.982;2023-04-25T04:20:55;3.63;;;1.10;;
47367;SDS011;34646;47.964;7.982;2023-04-25T04:26:58;2.42;;;0.85;;
47367;SDS011;34646;47.964;7.982;2023-04-25T04:33:10;3.72;;;0.95;;
47367;SDS011;34646;47.964;7.982;2023-04-25T04:39:13;1.65;;;0.70;;
47367;SDS011;34646;47.964;7.982;2023-04-25T04:45:38;2.45;;;1.08;;
47367;SDS011;34646;47.964;7.982;2023-04-25T04:52:06;1.33;;;0.70;;
47367;SDS011;34646;47.964;7.982;2023-04-25T04:58:13;2.08;;;1.10;;
47367;SDS011;34646;47.964;7.982;2023-04-25T05:04:31;0.98;;;0.57;;
47367;SDS011;34646;47.964;7.982;2023-04-25T05:10:41;2.38;;;0.82;;
47367;SDS011;34646;47.964;7.982;2023-04-25T05:17:05;1.50;;;0.80;;
47367;SDS011;34646;47.964;7.982;2023-04-25T05:23:26;2.20;;;0.77;;
47367;SDS011;34646;47.964;7.982;2023-04-25T05:29:27;4.43;;;0.90;;
47367;SDS011;34646;47.964;7.982;2023-04-25T05:35:36;1.40;;;0.85;;
47367;SDS011;34646;47.964;7.982;2023-04-25T05:41:37;2.90;;;1.15;;
47367;SDS011;34646;47.964;7.982;2023-04-25T05:48:01;2.45;;;0.90;;
47367;SDS011;34646;47.964;7.982;2023-04-25T05:54:12;1.10;;;0.70;;
47367;SDS011;34646;47.964;7.982;2023-04-25T06:00:14;2.30;;;0.80;;
47367;SDS011;34646;47.964;7.982;2023-04-25T06:06:17;1.23;;;0.73;;
47367;SDS011;34646;47.964;7.982;2023-04-25T06:12:18;1.53;;;0.73;;
47367;SDS011;34646;47.964;7.982;2023-04-25T06:18:20;1.60;;;1.00;;
47367;SDS011;34646;47.964;7.982;2023-04-25T06:24:21;3.23;;;0.70;;
47367;SDS011;34646;47.964;7.982;2023-04-25T06:30:21;1.83;;;0.90;;
47367;SDS011;34646;47.964;7.982;2023-04-25T06:36:28;1.20;;;0.70;;
47367;SDS011;34646;47.964;7.982;2023-04-25T06:42:35;3.05;;;0.98;;
47367;SDS011;34646;47.964;7.982;2023-04-25T06:48:56;2.47;;;0.85;;
47367;SDS011;34646;47.964;7.982;2023-04-25T06:54:57;3.43;;;0.80;;
47367;SDS011;34646;47.964;7.982;2023-04-25T07:01:10;1.85;;;0.85;;
47367;SDS011;34646;47.964;7.982;2023-04-25T07:07:11;1.57;;;0.80;;
47367;SDS011;34646;47.964;7.982;2023-04-25T07:13:19;2.85;;;1.02;;
47367;SDS011;34646;47.964;7.982;2023-04-25T07:19:20;3.00;;;0.97;;
47367;SDS011;34646;47.964;7.982;2023-04-25T07:25:21;3.53;;;0.90;;
47367;SDS011;34646;47.964;7.982;2023-04-25T07:31:23;1.67;;;0.90;;
47367;SDS011;34646;47.964;7.982;2023-04-25T07:37:25;2.00;;;1.27;;
47367;SDS011;34646;47.964;7.982;2023-04-25T07:43:36;1.63;;;0.70;;
47367;SDS011;34646;47.964;7.982;2023-04-25T07:49:37;2.03;;;0.77;;
47367;SDS011;34646;47.964;7.982;2023-04-25T08:01:45;2.08;;;0.80;;
47367;SDS011;34646;47.964;7.982;2023-04-25T08:07:46;1.70;;;1.02;;
47367;SDS011;34646;47.964;7.982;2023-04-25T08:13:47;3.53;;;0.70;;
47367;SDS011;34646;47.964;7.982;2023-04-25T08:19:49;0.80;;;0.53;;
47367;SDS011;34646;47.964;7.982;2023-04-25T08:25:57;1.60;;;0.60;;
47367;SDS011;34646;47.964;7.982;2023-04-25T08:32:01;1.63;;;0.90;;
47367;SDS011;34646;47.964;7.982;2023-04-25T08:38:02;0.90;;;0.60;;
47367;SDS011;34646;47.964;7.982;2023-04-25T08:44:03;2.67;;;0.83;;
47367;SDS011;34646;47.964;7.982;2023-04-25T08:50:05;2.38;;;0.85;;
47367;SDS011;34646;47.964;7.982;2023-04-25T09:02:09;1.33;;;0.63;;
47367;SDS011;34646;47.964;7.982;2023-04-25T09:08:14;1.00;;;0.63;;
47367;SDS011;34646;47.964;7.982;2023-04-25T09:14:16;1.02;;;0.52;;
47367;SDS011;34646;47.964;7.982;2023-04-25T09:20:43;1.30;;;0.65;;
47367;SDS011;34646;47.964;7.982;2023-04-25T09:26:45;2.75;;;0.80;;
47367;SDS011;34646;47.964;7.982;2023-04-25T09:32:46;1.73;;;0.80;;
47367;SDS011;34646;47.964;7.982;2023-04-25T09:38:47;0.82;;;0.47;;
47367;SDS011;34646;47.964;7.982;2023-04-25T09:45:07;2.40;;;0.70;;
47367;SDS011;34646;47.964;7.982;2023-04-25T09:51:14;2.03;;;0.73;;
47367;SDS011;34646;47.964;7.982;2023-04-25T09:57:19;1.40;;;0.80;;
47367;SDS011;34646;47.964;7.982;2023-04-25T10:03:22;1.88;;;0.73;;
47367;SDS011;34646;47.964;7.982;2023-04-25T10:09:48;0.80;;;0.50;;
47367;SDS011;34646;47.964;7.982;2023-04-25T10:28:20;1.60;;;0.60;;
47367;SDS011;34646;47.964;7.982;2023-04-25T10:34:25;1.13;;;0.53;;
47367;SDS011;34646;47.964;7.982;2023-04-25T10:41:02;1.33;;;0.60;;
47367;SDS011;34646;47.964;7.982;2023-04-25T10:47:06;1.92;;;0.60;;
47367;SDS011;34646;47.964;7.982;2023-04-25T10:53:15;1.95;;;0.65;;
47367;SDS011;34646;47.964;7.982;2023-04-25T10:59:16;1.63;;;0.70;;
47367;SDS011;34646;47.964;7.982;2023-04-25T11:05:29;1.77;;;0.77;;
47367;SDS011;34646;47.964;7.982;2023-04-25T11:11:32;0.95;;;0.60;;
47367;SDS011;34646;47.964;7.982;2023-04-25T11:17:36;1.00;;;0.60;;
47367;SDS011;34646;47.964;7.982;2023-04-25T11:23:39;1.13;;;0.50;;
47367;SDS011;34646;47.964;7.982;2023-04-25T11:29:40;1.27;;;0.63;;
47367;SDS011;34646;47.964;7.982;2023-04-25T11:35:41;1.43;;;0.40;;
47367;SDS011;34646;47.964;7.982;2023-04-25T11:41:42;1.20;;;0.70;;
47367;SDS011;34646;47.964;7.982;2023-04-25T11:47:43;0.68;;;0.47;;
47367;SDS011;34646;47.964;7.982;2023-04-25T11:53:44;1.47;;;0.60;;
47367;SDS011;34646;47.964;7.982;2023-04-25T12:05:46;1.10;;;0.75;;
47367;SDS011;34646;47.964;7.982;2023-04-25T12:11:47;3.97;;;2.13;;
47367;SDS011;34646;47.964;7.982;2023-04-25T12:17:53;3.10;;;1.52;;
47367;SDS011;34646;47.964;7.982;2023-04-25T12:23:55;3.13;;;1.67;;
47367;SDS011;34646;47.964;7.982;2023-04-25T12:29:56;3.20;;;1.87;;
47367;SDS011;34646;47.964;7.982;2023-04-25T12:35:58;3.08;;;1.80;;
47367;SDS011;34646;47.964;7.982;2023-04-25T12:42:00;14.43;;;2.95;;
47367;SDS011;34646;47.964;7.982;2023-04-25T12:48:01;4.90;;;2.67;;
47367;SDS011;34646;47.964;7.982;2023-04-25T12:54:02;9.53;;;3.30;;
47367;SDS011;34646;47.964;7.982;2023-04-25T13:00:04;9.68;;;5.57;;
47367;SDS011;34646;47.964;7.982;2023-04-25T13:06:07;16.67;;;6.22;;
47367;SDS011;34646;47.964;7.982;2023-04-25T13:12:08;13.03;;;6.30;;
47367;SDS011;34646;47.964;7.982;2023-04-25T13:18:09;12.67;;;6.40;;
47367;SDS011;34646;47.964;7.982;2023-04-25T13:24:10;9.13;;;5.30;;
47367;SDS011;34646;47.964;7.982;2023-04-25T13:30:11;14.73;;;5.60;;
47367;SDS011;34646;47.964;7.982;2023-04-25T13:36:12;9.10;;;5.33;;
47367;SDS011;34646;47.964;7.982;2023-04-25T13:42:13;9.33;;;5.10;;
47367;SDS011;34646;47.964;7.982;2023-04-25T13:48:13;12.23;;;5.00;;
47367;SDS011;34646;47.964;7.982;2023-04-25T13:54:15;14.10;;;5.33;;
47367;SDS011;34646;47.964;7.982;2023-04-25T14:00:15;13.10;;;9.70;;
47367;SDS011;34646;47.964;7.982;2023-04-25T14:06:16;4.15;;;3.05;;
47367;SDS011;34646;47.964;7.982;2023-04-25T14:12:23;32.42;;;22.50;;
47367;SDS011;34646;47.964;7.982;2023-04-25T14:18:24;28.35;;;20.05;;
47367;SDS011;34646;47.964;7.982;2023-04-25T14:24:25;27.67;;;19.20;;
47367;SDS011;34646;47.964;7.982;2023-04-25T14:30:25;23.67;;;18.43;;
47367;SDS011;34646;47.964;7.982;2023-04-25T14:36:29;23.73;;;18.97;;
47367;SDS011;34646;47.964;7.982;2023-04-25T14:42:31;22.00;;;17.52;;
47367;SDS011;34646;47.964;7.982;2023-04-25T14:48:33;22.90;;;16.60;;
47367;SDS011;34646;47.964;7.982;2023-04-25T14:54:35;21.10;;;16.33;;
47367;SDS011;34646;47.964;7.982;2023-04-25T15:00:35;21.23;;;15.20;;
47367;SDS011;34646;47.964;7.982;2023-04-25T15:06:37;18.23;;;14.13;;
47367;SDS011;34646;47.964;7.982;2023-04-25T15:12:38;17.37;;;13.57;;
47367;SDS011;34646;47.964;7.982;2023-04-25T15:18:39;19.33;;;13.83;;
47367;SDS011;34646;47.964;7.982;2023-04-25T15:24:40;17.45;;;12.68;;
47367;SDS011;34646;47.964;7.982;2023-04-25T15:30:43;17.77;;;13.63;;
47367;SDS011;34646;47.964;7.982;2023-04-25T15:36:44;16.17;;;11.93;;
47367;SDS011;34646;47.964;7.982;2023-04-25T15:42:45;14.10;;;10.63;;
47367;SDS011;34646;47.964;7.982;2023-04-25T15:48:50;18.75;;;10.80;;
47367;SDS011;34646;47.964;7.982;2023-04-25T15:54:51;16.47;;;10.50;;
47367;SDS011;34646;47.964;7.982;2023-04-25T16:00:52;20.07;;;10.93;;
47367;SDS011;34646;47.964;7.982;2023-04-25T16:06:55;16.20;;;9.65;;
47367;SDS011;34646;47.964;7.982;2023-04-25T16:12:55;15.87;;;9.30;;
47367;SDS011;34646;47.964;7.982;2023-04-25T16:18:56;22.93;;;9.80;;
47367;SDS011;34646;47.964;7.982;2023-04-25T16:24:57;16.73;;;9.03;;
47367;SDS011;34646;47.964;7.982;2023-04-25T16:30:57;19.23;;;8.97;;
47367;SDS011;34646;47.964;7.982;2023-04-25T16:36:59;17.70;;;8.07;;
47367;SDS011;34646;47.964;7.982;2023-04-25T16:43:00;15.83;;;7.80;;
47367;SDS011;34646;47.964;7.982;2023-04-25T16:49:01;10.80;;;6.93;;
47367;SDS011;34646;47.964;7.982;2023-04-25T16:55:01;14.17;;;6.87;;
47367;SDS011;34646;47.964;7.982;2023-04-25T17:01:03;12.87;;;7.20;;
47367;SDS011;34646;47.964;7.982;2023-04-25T17:07:04;12.63;;;7.17;;
47367;SDS011;34646;47.964;7.982;2023-04-25T17:13:04;20.13;;;6.90;;
47367;SDS011;34646;47.964;7.982;2023-04-25T17:19:05;8.43;;;6.33;;
47367;SDS011;34646;47.964;7.982;2023-04-25T17:25:07;12.30;;;5.77;;
47367;SDS011;34646;47.964;7.982;2023-04-25T17:31:08;10.15;;;5.47;;
47367;SDS011;34646;47.964;7.982;2023-04-25T17:37:09;7.90;;;5.53;;
47367;SDS011;34646;47.964;7.982;2023-04-25T17:43:14;16.00;;;5.75;;
47367;SDS011;34646;47.964;7.982;2023-04-25T17:49:15;14.40;;;5.72;;
47367;SDS011;34646;47.964;7.982;2023-04-25T17:55:16;10.63;;;5.07;;
47367;SDS011;34646;47.964;7.982;2023-04-25T18:01:16;12.43;;;5.90;;
47367;SDS011;34646;47.964;7.982;2023-04-25T18:07:17;11.37;;;4.87;;
47367;SDS011;34646;47.964;7.982;2023-04-25T18:13:18;12.47;;;5.63;;
47367;SDS011;34646;47.964;7.982;2023-04-25T18:19:19;11.67;;;5.43;;
47367;SDS011;34646;47.964;7.982;2023-04-25T18:25:22;10.40;;;5.28;;
47367;SDS011;34646;47.964;7.982;2023-04-25T18:31:23;10.63;;;5.53;;
47367;SDS011;34646;47.964;7.982;2023-04-25T18:37:24;10.60;;;4.70;;
47367;SDS011;34646;47.964;7.982;2023-04-25T18:43:25;7.53;;;4.47;;
47367;SDS011;34646;47.964;7.982;2023-04-25T18:49:26;11.87;;;4.93;;
47367;SDS011;34646;47.964;7.982;2023-04-25T18:55:27;16.60;;;6.47;;
47367;SDS011;34646;47.964;7.982;2023-04-25T19:01:28;13.48;;;6.15;;
47367;SDS011;34646;47.964;7.982;2023-04-25T19:07:29;21.47;;;6.97;;
47367;SDS011;34646;47.964;7.982;2023-04-25T19:19:32;14.02;;;5.93;;
47367;SDS011;34646;47.964;7.982;2023-04-25T19:25:32;16.17;;;8.00;;
47367;SDS011;34646;47.964;7.982;2023-04-25T19:31:34;18.10;;;8.50;;
47367;SDS011;34646;47.964;7.982;2023-04-25T19:37:35;14.45;;;7.97;;
47367;SDS011;34646;47.964;7.982;2023-04-25T19:43:36;16.13;;;6.87;;
47367;SDS011;34646;47.964;7.982;2023-04-25T19:49:37;13.70;;;5.60;;
47367;SDS011;34646;47.964;7.982;2023-04-25T19:55:38;16.57;;;5.80;;
47367;SDS011;34646;47.964;7.982;2023-04-25T20:01:39;13.20;;;4.77;;
47367;SDS011;34646;47.964;7.982;2023-04-25T20:07:40;8.57;;;4.80;;
47367;SDS011;34646;47.964;7.982;2023-04-25T20:13:40;10.10;;;4.80;;
47367;SDS011;34646;47.964;7.982;2023-04-25T20:19:41;12.20;;;4.67;;
47367;SDS011;34646;47.964;7.982;2023-04-25T20:25:42;8.60;;;4.47;;
47367;SDS011;34646;47.964;7.982;2023-04-25T20:31:42;6.70;;;4.80;;
47367;SDS011;34646;47.964;7.982;2023-04-25T20:37:43;8.50;;;4.63;;
47367;SDS011;34646;47.964;7.982;2023-04-25T20:43:45;8.15;;;3.92;;
47367;SDS011;34646;47.964;7.982;2023-04-25T20:49:49;9.52;;;4.20;;
47367;SDS011;34646;47.964;7.982;2023-04-25T20:55:49;6.00;;;4.00;;
47367;SDS011;34646;47.964;7.982;2023-04-25T21:01:51;7.70;;;3.37;;
47367;SDS011;34646;47.964;7.982;2023-04-25T21:07:53;8.27;;;3.80;;
47367;SDS011;34646;47.964;7.982;2023-04-25T21:13:54;6.17;;;3.97;;
47367;SDS011;34646;47.964;7.982;2023-04-25T21:19:55;7.53;;;3.90;;
47367;SDS011;34646;47.964;7.982;2023-04-25T21:25:55;6.60;;;3.60;;
47367;SDS011;34646;47.964;7.982;2023-04-25T21:31:56;4.40;;;3.23;;
47367;SDS011;34646;47.964;7.982;2023-04-25T21:37:57;7.87;;;4.03;;
47367;SDS011;34646;47.964;7.982;2023-04-25T21:43:58;6.23;;;3.27;;
47367;SDS011;34646;47.964;7.982;2023-04-25T21:49:58;6.20;;;3.50;;
47367;SDS011;34646;47.964;7.982;2023-04-25T21:56:00;6.90;;;3.80;;
47367;SDS011;34646;47.964;7.982;2023-04-25T22:02:00;6.20;;;3.40;;
47367;SDS011;34646;47.964;7.982;2023-04-25T22:08:01;5.43;;;3.47;;
47367;SDS011;34646;47.964;7.982;2023-04-25T22:14:02;6.70;;;3.17;;
47367;SDS011;34646;47.964;7.982;2023-04-25T22:20:03;6.73;;;2.83;;
47367;SDS011;34646;47.964;7.982;2023-04-25T22:26:10;6.38;;;3.30;;
47367;SDS011;34646;47.964;7.982;2023-04-25T22:32:11;7.77;;;3.90;;
47367;SDS011;34646;47.964;7.982;2023-04-25T22:38:12;4.80;;;3.07;;
47367;SDS011;34646;47.964;7.982;2023-04-25T22:44:13;3.83;;;2.83;;
47367;SDS011;34646;47.964;7.982;2023-04-25T22:50:14;4.60;;;3.03;;
47367;SDS011;34646;47.964;7.982;2023-04-25T22:56:15;5.30;;;3.05;;
47367;SDS011;34646;47.964;7.982;2023-04-25T23:02:16;6.83;;;3.00;;
47367;SDS011;34646;47.964;7.982;2023-04-25T23:08:17;4.90;;;3.17;;
47367;SDS011;34646;47.964;7.982;2023-04-25T23:14:18;5.50;;;2.70;;
47367;SDS011;34646;47.964;7.982;2023-04-25T23:20:20;4.07;;;2.80;;
47367;SDS011;34646;47.964;7.982;2023-04-25T23:26:20;5.40;;;2.97;;
47367;SDS011;34646;47.964;7.982;2023-04-25T23:32:21;4.77;;;3.10;;
47367;SDS011;34646;47.964;7.982;2023-04-25T23:38:24;5.28;;;2.63;;
47367;SDS011;34646;47.964;7.982;2023-04-25T23:44:25;5.73;;;3.10;;
47367;SDS011;34646;47.964;7.982;2023-04-25T23:50:26;4.70;;;2.60;;
47367;SDS011;34646;47.964;7.982;2023-04-25T23:56:27;4.30;;;2.70;;
